Time;durP1;ratioP1;P1;durP2;ratioP2;P2;SDS_P1;SDS_P2;PMS_P1;PMS_P2;Temp;Humidity;BMP_temperature;BMP_pressure;BME280_temperature;BME280_humidity;BME280_pressure;Samples;Min_cycle;Max_cycle;Signal;HPM_P1;HPM_P2
2022/11/15 00:02:17;;;;;;;;;;;;;;;0.44;80.48;102192.57;1796555;79;20229;-61
2022/11/15 00:05:03;;;;;;;;;;;;;;;0.42;80.38;102185.18;1798629;79;20123;-63
2022/11/15 00:07:49;;;;;;;;;;;;;;;0.40;80.36;102185.56;1795725;79;20227;-58
2022/11/15 00:10:34;;;;;;;;;;;;;;;0.36;80.88;102185.47;1798503;79;20712;-61
2022/11/15 00:13:20;;;;;;;;;;;;;;;0.29;81.50;102191.33;1796339;78;20277;-62
2022/11/15 00:16:06;;;;;;;;;;;;;;;0.22;81.88;102186.81;1796560;79;20259;-61
2022/11/15 00:18:51;;;;;;;;;;;;;;;0.14;82.77;102184.45;1794637;79;20501;-57
2022/11/15 00:21:37;;;;;;;;;;;;;;;0.09;82.94;102176.57;1798024;79;20235;-57
2022/11/15 00:24:23;;;;;;;;;;;;;;;0.12;82.57;102184.83;1796461;79;20516;-59
2022/11/15 00:27:08;;;;;;;;;;;;;;;0.09;82.82;102184.73;1797271;79;20522;-56
2022/11/15 00:29:54;;;;;;;;;;;;;;;0.08;83.04;102181.70;1796576;79;20233;-64
2022/11/15 00:32:40;;;;;;;;;;;;;;;0.08;83.14;102174.80;1795965;79;20257;-60
2022/11/15 00:35:25;;;;;;;;;;;;;;;0.09;83.13;102179.55;1795826;79;20238;-57
2022/11/15 00:38:11;;;;;;;;;;;;;;;0.09;83.12;102179.16;1797021;79;20571;-59
2022/11/15 00:40:56;;;;;;;;;;;;;;;0.13;83.02;102180.09;1797151;79;20261;-59
2022/11/15 00:43:43;;;;;;;;;;;;;;;0.15;82.77;102180.61;1781225;81;20132;-57
2022/11/15 00:46:28;;;;;;;;;;;;;;;0.16;82.46;102181.48;1781272;81;20127;-57
2022/11/15 00:49:14;;;;;;;;;;;;;;;0.16;82.33;102180.19;1781254;81;20139;-57
2022/11/15 00:52:00;;;;;;;;;;;;;;;0.17;82.10;102178.94;1783341;79;20219;-58
2022/11/15 00:54:46;;;;;;;;;;;;;;;0.16;81.90;102176.30;1795014;79;20166;-60
2022/11/15 00:57:31;;;;;;;;;;;;;;;0.14;81.76;102171.07;1781410;81;20125;-62
2022/11/15 01:00:17;;;;;;;;;;;;;;;0.13;81.61;102171.02;1807725;78;20420;-59
2022/11/15 01:03:03;;;;;;;;;;;;;;;0.09;81.70;102176.96;1825609;78;20159;-59
2022/11/15 01:05:49;;;;;;;;;;;;;;;0.08;81.60;102171.34;1802474;79;20227;-63
2022/11/15 01:08:35;;;;;;;;;;;;;;;0.04;81.61;102171.67;1810064;78;20119;-62
2022/11/15 01:11:21;;;;;;;;;;;;;;;-0.03;82.01;102175.80;1806673;78;20121;-63
2022/11/15 01:14:07;;;;;;;;;;;;;;;-0.11;82.49;102168.25;1819593;78;20135;-62
2022/11/15 01:16:53;;;;;;;;;;;;;;;-0.14;82.67;102175.92;1825410;78;20122;-62
2022/11/15 01:19:39;;;;;;;;;;;;;;;-0.17;82.76;102171.94;1812131;78;20124;-62
2022/11/15 01:22:25;;;;;;;;;;;;;;;-0.21;83.01;102181.76;1825736;78;20161;-65
2022/11/15 01:25:10;;;;;;;;;;;;;;;-0.25;83.46;102178.63;1813354;78;20127;-62
2022/11/15 01:27:56;;;;;;;;;;;;;;;-0.33;83.76;102176.22;1840660;78;20145;-63
2022/11/15 01:30:42;;;;;;;;;;;;;;;-0.44;84.08;102169.03;1818363;78;20115;-59
2022/11/15 01:33:28;;;;;;;;;;;;;;;-0.51;84.29;102172.27;1810355;79;20164;-61
2022/11/15 01:36:19;;;;;;;;;;;;;;;-0.57;84.65;102171.20;1810422;79;20248;-62
2022/11/15 01:39:04;;;;;;;;;;;;;;;-0.70;85.03;102174.73;1809722;79;20174;-61
2022/11/15 01:41:50;;;;;;;;;;;;;;;-0.66;84.90;102171.83;1799175;79;20118;-58
2022/11/15 01:44:40;;;;;;;;;;;;;;;-0.63;84.80;102174.48;1781295;81;20182;-58
2022/11/15 01:47:27;;;;;;;;;;;;;;;-0.60;84.77;102173.30;1824647;78;20423;-68
2022/11/15 01:50:15;;;;;;;;;;;;;;;-0.60;84.79;102172.00;1803076;79;20155;-61
2022/11/15 01:53:00;;;;;;;;;;;;;;;-0.62;84.83;102174.97;1802788;78;20167;-60
2022/11/15 01:55:46;;;;;;;;;;;;;;;-0.65;85.02;102173.14;1803839;78;20126;-61
2022/11/15 01:58:32;;;;;;;;;;;;;;;-0.67;85.16;102173.94;1781375;81;20124;-60
2022/11/15 02:01:19;;;;;;;;;;;;;;;-0.68;85.24;102179.93;1781363;81;20117;-61
2022/11/15 02:04:07;;;;;;;;;;;;;;;-0.68;85.15;102177.34;1781277;81;20148;-62
2022/11/15 02:06:52;;;;;;;;;;;;;;;-0.70;85.34;102179.02;1797518;79;20258;-63
2022/11/15 02:09:39;;;;;;;;;;;;;;;-0.72;85.40;102172.91;1791397;79;20184;-62
2022/11/15 02:12:25;;;;;;;;;;;;;;;-0.73;85.44;102173.77;1801979;79;20123;-63
2022/11/15 02:15:11;;;;;;;;;;;;;;;-0.74;85.38;102169.41;1801813;79;20133;-62
2022/11/15 02:18:14;;;;;;;;;;;;;;;-0.81;85.52;102166.64;1781475;79;20172;-61
2022/11/15 02:21:04;;;;;;;;;;;;;;;-0.88;85.86;102174.17;1768680;79;20231;-63
2022/11/15 02:23:58;;;;;;;;;;;;;;;-0.92;85.92;102168.03;1775593;80;20197;-64
2022/11/15 02:26:45;;;;;;;;;;;;;;;-0.92;85.88;102165.84;1764442;80;20124;-57
2022/11/15 02:29:51;;;;;;;;;;;;;;;-0.94;85.91;102163.62;1779612;80;20430;-57
2022/11/15 02:32:41;;;;;;;;;;;;;;;-0.98;85.98;102167.81;1771695;80;20234;-54
2022/11/15 02:35:45;;;;;;;;;;;;;;;-1.05;86.31;102178.41;1783489;80;20200;-54
2022/11/15 02:38:32;;;;;;;;;;;;;;;-1.08;86.40;102177.42;1776145;80;20290;-56
2022/11/15 02:41:19;;;;;;;;;;;;;;;-1.10;86.33;102182.96;1787477;80;20290;-54
2022/11/15 02:44:10;;;;;;;;;;;;;;;-1.09;86.34;102171.77;1783987;80;20292;-52
2022/11/15 02:47:15;;;;;;;;;;;;;;;-1.08;86.31;102178.72;1766175;80;20137;-52
2022/11/15 02:50:03;;;;;;;;;;;;;;;-1.09;86.46;102180.82;1795414;80;20511;-52
2022/11/15 02:52:52;;;;;;;;;;;;;;;-1.09;86.58;102178.23;1771645;80;20405;-57
2022/11/15 02:55:39;;;;;;;;;;;;;;;-1.12;86.74;102176.88;1778956;80;20714;-57
2022/11/15 02:58:45;;;;;;;;;;;;;;;-1.08;86.57;102186.05;1795494;80;20179;-58
2022/11/15 03:01:32;;;;;;;;;;;;;;;-1.09;86.63;102176.95;1795453;80;20119;-57
2022/11/15 03:04:19;;;;;;;;;;;;;;;-1.10;86.62;102170.03;1779847;80;20232;-58
2022/11/15 03:07:18;;;;;;;;;;;;;;;-1.09;86.45;102175.66;1766611;81;20180;-64
2022/11/15 03:10:08;;;;;;;;;;;;;;;-1.11;86.26;102178.61;1766619;81;20372;-60
2022/11/15 03:12:58;;;;;;;;;;;;;;;-1.11;86.18;102182.06;1766579;81;20484;-64
2022/11/15 03:16:02;;;;;;;;;;;;;;;-1.17;86.29;102171.53;1766654;81;20122;-64
2022/11/15 03:18:50;;;;;;;;;;;;;;;-1.19;86.24;102174.06;1766575;81;20171;-63
2022/11/15 03:21:37;;;;;;;;;;;;;;;-1.24;86.24;102178.20;1752491;80;20176;-64
2022/11/15 03:24:25;;;;;;;;;;;;;;;-1.26;86.23;102179.86;1749135;82;20155;-64
2022/11/15 03:27:12;;;;;;;;;;;;;;;-1.23;86.03;102179.97;1749105;82;20461;-62
2022/11/15 03:29:59;;;;;;;;;;;;;;;-1.21;85.76;102183.91;1754186;81;20454;-63
2022/11/15 03:32:50;;;;;;;;;;;;;;;-1.25;85.75;102176.46;1757962;81;20155;-61
2022/11/15 03:35:40;;;;;;;;;;;;;;;-1.32;85.99;102171.92;1753320;81;20138;-61
2022/11/15 03:38:27;;;;;;;;;;;;;;;-1.39;86.23;102166.95;1757212;81;20169;-63
2022/11/15 03:41:13;;;;;;;;;;;;;;;-1.44;86.29;102171.50;1754688;81;20229;-61
2022/11/15 03:44:00;;;;;;;;;;;;;;;-1.48;86.36;102170.95;1764367;81;20285;-62
2022/11/15 03:46:51;;;;;;;;;;;;;;;-1.51;86.61;102169.54;1764438;81;20297;-60
2022/11/15 03:49:38;;;;;;;;;;;;;;;-1.53;86.65;102166.94;1756381;81;20131;-57
2022/11/15 03:52:24;;;;;;;;;;;;;;;-1.51;86.50;102162.69;1756351;81;20191;-56
2022/11/15 03:55:11;;;;;;;;;;;;;;;-1.54;86.60;102166.45;1760580;81;20350;-56
2022/11/15 03:57:58;;;;;;;;;;;;;;;-1.59;86.85;102166.28;1758012;81;20222;-59
2022/11/15 04:00:44;;;;;;;;;;;;;;;-1.64;87.03;102169.15;1768914;81;20149;-57
2022/11/15 04:03:30;;;;;;;;;;;;;;;-1.68;87.27;102169.84;1768484;81;20241;-59
2022/11/15 04:06:15;;;;;;;;;;;;;;;-1.67;87.20;102167.74;1758868;81;20266;-65
2022/11/15 04:09:01;;;;;;;;;;;;;;;-1.66;87.21;102168.61;1769068;81;20473;-64
2022/11/15 04:11:47;;;;;;;;;;;;;;;-1.63;87.08;102170.89;1765036;81;20122;-62
2022/11/15 04:14:33;;;;;;;;;;;;;;;-1.63;87.10;102168.30;1767260;81;20179;-63
2022/11/15 04:17:18;;;;;;;;;;;;;;;-1.62;87.25;102175.66;1764844;81;20480;-66
2022/11/15 04:26:15;;;;;;;;;;;;;;;-1.60;87.16;102176.17;1757034;81;20415;-62
2022/11/15 04:32:06;;;;;;;;;;;;;;;-1.60;87.10;102174.88;1750788;81;20125;-60
2022/11/15 04:34:51;;;;;;;;;;;;;;;-1.59;87.05;102177.91;1757450;81;20255;-59
2022/11/15 04:37:37;;;;;;;;;;;;;;;-1.53;86.89;102181.53;1757586;81;20287;-60
2022/11/15 04:40:23;;;;;;;;;;;;;;;-1.51;86.80;102181.16;1753927;81;20256;-60
2022/11/15 04:43:08;;;;;;;;;;;;;;;-1.48;86.80;102186.45;1754658;81;20411;-60
2022/11/15 04:45:54;;;;;;;;;;;;;;;-1.42;86.70;102185.34;1743549;81;20565;-60
2022/11/15 04:48:40;;;;;;;;;;;;;;;-1.32;86.66;102182.26;1757794;81;20208;-60
2022/11/15 04:51:26;;;;;;;;;;;;;;;-1.30;86.65;102178.02;1735974;81;20470;-59
2022/11/15 04:54:12;;;;;;;;;;;;;;;-1.29;86.66;102184.95;1746037;81;20214;-60
2022/11/15 04:56:57;;;;;;;;;;;;;;;-1.23;86.57;102190.73;1746429;81;20254;-56
2022/11/15 04:59:43;;;;;;;;;;;;;;;-1.16;86.40;102190.11;1757621;81;20121;-56
2022/11/15 05:04:18;;;;;;;;;;;;;;;-1.08;86.27;102194.23;1746997;81;20172;-56
2022/11/15 05:05:30;;;;;;;;;;;;;;;-0.99;86.04;102193.23;1753707;81;20284;-57
2022/11/15 05:07:57;;;;;;;;;;;;;;;-0.85;85.86;102188.08;1823755;77;20530;-60
2022/11/15 05:10:43;;;;;;;;;;;;;;;-0.71;85.68;102187.62;1824017;79;20191;-64
2022/11/15 05:13:29;;;;;;;;;;;;;;;-0.60;85.44;102187.10;1823770;79;20226;-63
2022/11/15 05:16:14;;;;;;;;;;;;;;;-0.57;85.09;102192.80;1825641;79;20185;-63
2022/11/15 05:19:00;;;;;;;;;;;;;;;-0.47;84.96;102198.70;1818108;78;20177;-60
2022/11/15 05:21:46;;;;;;;;;;;;;;;-0.12;84.46;102198.84;1818190;79;20403;-52
2022/11/15 05:24:32;;;;;;;;;;;;;;;0.19;84.02;102201.00;1835280;78;20424;-51
2022/11/15 05:27:18;;;;;;;;;;;;;;;0.40;83.81;102205.00;1836526;77;20268;-63
2022/11/15 05:30:03;;;;;;;;;;;;;;;0.57;83.49;102212.38;1835231;78;20165;-57
2022/11/15 05:32:50;;;;;;;;;;;;;;;0.74;82.99;102217.98;1835607;78;20114;-54
2022/11/15 05:35:37;;;;;;;;;;;;;;;0.94;82.33;102213.70;1835957;78;20234;-54
2022/11/15 05:38:24;;;;;;;;;;;;;;;1.33;82.14;102223.28;1835972;78;20228;-59
2022/11/15 05:41:09;;;;;;;;;;;;;;;1.99;81.35;102222.08;1835080;78;20381;-56
2022/11/15 05:43:55;;;;;;;;;;;;;;;2.80;79.86;102224.44;1835933;77;20144;-56
2022/11/15 05:46:41;;;;;;;;;;;;;;;3.70;79.04;102221.02;1836034;78;20122;-57
2022/11/15 05:49:28;;;;;;;;;;;;;;;4.63;77.84;102225.11;1834904;78;20115;-56
2022/11/15 05:52:15;;;;;;;;;;;;;;;5.61;77.21;102221.03;1835990;78;20208;-57
2022/11/15 05:55:02;;;;;;;;;;;;;;;6.50;76.45;102223.11;1835261;77;20197;-54
2022/11/15 05:57:48;;;;;;;;;;;;;;;7.30;75.84;102212.64;1835775;78;20145;-63
2022/11/15 06:00:33;;;;;;;;;;;;;;;7.99;75.16;102212.84;1835569;78;20123;-63
2022/11/15 06:03:19;;;;;;;;;;;;;;;8.67;74.22;102213.79;1835635;78;20272;-56
2022/11/15 06:06:04;;;;;;;;;;;;;;;9.36;73.24;102214.92;1835894;78;20588;-56
2022/11/15 06:08:50;;;;;;;;;;;;;;;9.92;72.13;102202.84;1835542;78;20201;-57
2022/11/15 06:11:35;;;;;;;;;;;;;;;10.34;70.75;102207.59;1835749;78;20277;-56
2022/11/15 06:14:21;;;;;;;;;;;;;;;10.76;70.21;102217.05;1835621;78;20278;-57
2022/11/15 06:17:07;;;;;;;;;;;;;;;11.17;69.45;102208.88;1836170;78;20126;-57
2022/11/15 06:19:53;;;;;;;;;;;;;;;11.78;68.74;102208.13;1836724;78;20292;-57
2022/11/15 06:22:39;;;;;;;;;;;;;;;12.25;68.04;102208.06;1835372;78;20153;-57
2022/11/15 06:25:24;;;;;;;;;;;;;;;12.67;67.31;102211.47;1834662;78;20174;-57
2022/11/15 06:28:10;;;;;;;;;;;;;;;13.11;66.32;102202.87;1835744;78;20260;-57
2022/11/15 06:30:56;;;;;;;;;;;;;;;13.45;65.99;102209.92;1834732;78;20503;-57
2022/11/15 06:33:42;;;;;;;;;;;;;;;13.96;65.60;102204.50;1835899;78;20156;-57
2022/11/15 06:36:28;;;;;;;;;;;;;;;14.06;65.39;102207.73;1835642;78;20263;-57
2022/11/15 06:39:13;;;;;;;;;;;;;;;14.13;65.41;102209.72;1835916;78;20202;-56
2022/11/15 06:41:59;;;;;;;;;;;;;;;14.70;64.87;102209.28;1835952;78;20419;-57
2022/11/15 06:44:45;;;;;;;;;;;;;;;15.18;62.61;102202.80;1836434;77;20118;-60
2022/11/15 06:47:31;;;;;;;;;;;;;;;15.50;62.48;102205.22;1837080;78;20115;-61
2022/11/15 06:50:16;;;;;;;;;;;;;;;15.79;62.49;102209.48;1837325;78;20141;-56
2022/11/15 06:53:03;;;;;;;;;;;;;;;16.29;61.98;102204.47;1838082;78;20173;-57
2022/11/15 06:55:50;;;;;;;;;;;;;;;16.71;60.70;102207.62;1853776;77;20143;-58
2022/11/15 06:58:35;;;;;;;;;;;;;;;16.89;60.40;102200.23;1840549;77;20404;-55
2022/11/15 07:01:21;;;;;;;;;;;;;;;17.09;59.97;102195.86;1836337;78;20149;-56
2022/11/15 07:04:07;;;;;;;;;;;;;;;17.23;58.67;102200.13;1836165;78;20119;-56
2022/11/15 07:06:52;;;;;;;;;;;;;;;17.26;57.91;102200.45;1836308;78;20146;-58
2022/11/15 07:09:38;;;;;;;;;;;;;;;17.52;58.24;102193.95;1836390;78;20122;-58
2022/11/15 07:12:24;;;;;;;;;;;;;;;17.71;57.30;102194.86;1836320;77;20123;-58
2022/11/15 07:15:10;;;;;;;;;;;;;;;17.75;56.49;102188.45;1836371;78;20122;-64
2022/11/15 07:17:56;;;;;;;;;;;;;;;17.68;55.95;102188.33;1836146;78;20190;-60
2022/11/15 07:20:42;;;;;;;;;;;;;;;17.80;54.97;102190.02;1836408;77;20392;-66
2022/11/15 07:23:28;;;;;;;;;;;;;;;17.73;54.12;102183.66;1836219;78;20127;-65
2022/11/15 07:26:14;;;;;;;;;;;;;;;17.92;53.51;102182.35;1836124;78;20118;-65
2022/11/15 07:28:59;;;;;;;;;;;;;;;17.98;53.15;102183.86;1836247;78;20167;-65
2022/11/15 07:31:45;;;;;;;;;;;;;;;18.31;52.66;102176.52;1836354;78;20143;-65
2022/11/15 07:34:31;;;;;;;;;;;;;;;18.48;51.89;102173.91;1836072;78;20505;-59
2022/11/15 07:37:17;;;;;;;;;;;;;;;18.62;51.82;102169.67;1835833;78;20159;-61
2022/11/15 07:40:03;;;;;;;;;;;;;;;18.59;50.63;102175.16;1835535;78;20572;-60
2022/11/15 07:42:54;;;;;;;;;;;;;;;18.70;50.46;102172.36;1835287;78;20276;-57
2022/11/15 07:45:44;;;;;;;;;;;;;;;18.10;50.29;102169.97;1835958;78;20159;-57
2022/11/15 07:48:29;;;;;;;;;;;;;;;18.03;49.53;102169.86;1835355;78;20123;-57
2022/11/15 07:51:16;;;;;;;;;;;;;;;18.42;48.72;102167.52;1835243;78;20530;-56
2022/11/15 07:54:02;;;;;;;;;;;;;;;18.68;48.16;102165.36;1834385;78;20201;-63
2022/11/15 07:56:49;;;;;;;;;;;;;;;19.15;47.44;102167.91;1835973;77;20419;-53
2022/11/15 07:59:35;;;;;;;;;;;;;;;19.62;46.89;102164.03;1836190;78;20141;-52
2022/11/15 08:02:20;;;;;;;;;;;;;;;19.93;46.71;102161.00;1836286;78;20201;-53
2022/11/15 08:05:07;;;;;;;;;;;;;;;20.32;46.34;102158.34;1836457;78;20145;-49
2022/11/15 08:07:55;;;;;;;;;;;;;;;20.63;45.52;102153.91;1845168;77;20451;-49
2022/11/15 08:10:41;;;;;;;;;;;;;;;20.76;45.57;102153.56;1859438;77;20122;-53
2022/11/15 08:13:26;;;;;;;;;;;;;;;20.82;45.12;102150.99;1859550;77;20114;-52
2022/11/15 08:16:12;;;;;;;;;;;;;;;21.10;44.63;102152.88;1859769;77;20161;-51
2022/11/15 08:18:58;;;;;;;;;;;;;;;21.11;43.90;102150.57;1859668;77;20142;-56
2022/11/15 08:21:44;;;;;;;;;;;;;;;21.21;43.06;102149.06;1857216;77;20118;-56
2022/11/15 08:24:30;;;;;;;;;;;;;;;21.12;41.83;102152.79;1858161;77;20568;-56
2022/11/15 08:27:16;;;;;;;;;;;;;;;21.37;42.55;102151.63;1858156;77;20174;-57
2022/11/15 08:30:02;;;;;;;;;;;;;;;21.63;41.85;102146.97;1857062;77;20147;-56
2022/11/15 08:32:48;;;;;;;;;;;;;;;21.63;41.19;102150.98;1857027;77;20377;-56
2022/11/15 08:35:34;;;;;;;;;;;;;;;21.65;41.30;102150.41;1857373;77;20119;-60
2022/11/15 08:38:20;;;;;;;;;;;;;;;21.79;40.63;102153.07;1859879;77;20393;-58
2022/11/15 08:41:06;;;;;;;;;;;;;;;21.85;40.69;102147.30;1859902;77;20145;-57
2022/11/15 08:43:51;;;;;;;;;;;;;;;21.59;40.20;102146.30;1860111;77;20142;-56
2022/11/15 08:46:37;;;;;;;;;;;;;;;21.61;39.79;102139.51;1859762;77;20122;-59
2022/11/15 08:49:22;;;;;;;;;;;;;;;21.11;39.40;102143.88;1859925;77;20234;-62
2022/11/15 08:52:09;;;;;;;;;;;;;;;20.88;39.17;102141.73;1859942;77;20404;-54
2022/11/15 08:54:55;;;;;;;;;;;;;;;20.87;38.92;102137.34;1864058;76;20163;-56
2022/11/15 08:57:41;;;;;;;;;;;;;;;20.78;38.13;102133.40;1891597;76;20117;-56
2022/11/15 09:00:27;;;;;;;;;;;;;;;20.51;38.29;102133.19;1869961;76;20113;-54
2022/11/15 09:03:13;;;;;;;;;;;;;;;20.27;38.06;102127.02;1859967;77;20125;-55
2022/11/15 09:05:59;;;;;;;;;;;;;;;20.46;38.34;102122.77;1859967;77;20151;-62
2022/11/15 09:08:45;;;;;;;;;;;;;;;20.53;37.93;102128.16;1848287;77;20115;-59
2022/11/15 09:11:31;;;;;;;;;;;;;;;21.20;37.63;102127.23;1838166;78;20295;-60
2022/11/15 09:14:16;;;;;;;;;;;;;;;20.97;37.49;102123.31;1838338;78;20145;-57
2022/11/15 09:17:03;;;;;;;;;;;;;;;21.04;37.36;102113.06;1838240;77;20156;-61
2022/11/15 09:19:49;;;;;;;;;;;;;;;20.75;37.06;102106.36;1837144;78;20167;-59
2022/11/15 09:22:34;;;;;;;;;;;;;;;20.63;37.25;102105.74;1846911;77;20191;-56
2022/11/15 09:25:20;;;;;;;;;;;;;;;20.50;37.22;102104.73;1872747;77;20420;-59
2022/11/15 09:28:10;;;;;;;;;;;;;;;20.42;37.49;102108.72;1836009;77;20205;-55
2022/11/15 09:30:59;;;;;;;;;;;;;;;20.86;37.43;102104.37;1834682;78;20117;-55
2022/11/15 09:33:45;;;;;;;;;;;;;;;20.67;37.13;102097.91;1834848;78;20147;-59
2022/11/15 09:36:31;;;;;;;;;;;;;;;20.65;37.15;102098.48;1835591;78;20114;-58
2022/11/15 09:39:17;;;;;;;;;;;;;;;20.21;36.76;102091.24;1836424;77;20388;-58
2022/11/15 09:42:05;;;;;;;;;;;;;;;20.48;37.10;102091.44;1836367;78;20206;-58
2022/11/15 09:44:52;;;;;;;;;;;;;;;21.30;36.71;102091.37;1836429;78;20118;-59
2022/11/15 09:47:52;;;;;;;;;;;;;;;21.65;36.51;102088.76;1833550;77;20181;-58
2022/11/15 09:50:41;;;;;;;;;;;;;;;20.91;36.32;102093.36;1807706;78;20132;-59
2022/11/15 09:53:22;;;;;;;;;;;;;;;20.21;37.14;102095.25;1840341;77;20171;-57
2022/11/15 09:56:04;;;;;;;;;;;;;;;19.85;37.52;102089.75;1855116;76;20126;-57
2022/11/15 09:58:39;;;;;;;;;;;;;;;19.71;37.92;102086.48;1852274;77;20405;-60
2022/11/15 10:01:11;;;;;;;;;;;;;;;19.63;37.96;102072.22;1850746;77;20146;-61
2022/11/15 10:03:41;;;;;;;;;;;;;;;20.09;37.66;102070.59;1849563;77;20123;-60
2022/11/15 10:06:11;;;;;;;;;;;;;;;20.28;37.33;102069.88;1852003;77;20151;-60
2022/11/15 10:08:43;;;;;;;;;;;;;;;19.98;37.53;102069.38;1842487;77;20144;-59
2022/11/15 10:11:12;;;;;;;;;;;;;;;20.15;37.73;102072.89;1839461;77;20147;-61
2022/11/15 10:13:44;;;;;;;;;;;;;;;19.91;38.19;102070.68;1841571;78;20158;-55
2022/11/15 10:16:30;;;;;;;;;;;;;;;20.34;37.69;102068.16;1841533;78;20127;-59
2022/11/15 10:19:03;;;;;;;;;;;;;;;20.31;37.23;102064.84;1841627;78;20148;-60
2022/11/15 10:21:32;;;;;;;;;;;;;;;19.93;37.17;102070.60;1840998;78;20392;-60
2022/11/15 10:24:00;;;;;;;;;;;;;;;19.84;37.61;102069.30;1835556;78;20115;-60
2022/11/15 10:26:28;;;;;;;;;;;;;;;20.10;37.60;102066.94;1841680;78;20189;-63
2022/11/15 10:28:56;;;;;;;;;;;;;;;19.28;38.15;102063.50;1841676;78;20119;-60
2022/11/15 10:31:25;;;;;;;;;;;;;;;18.27;39.53;102058.97;1841672;78;20273;-61
2022/11/15 10:33:54;;;;;;;;;;;;;;;18.00;39.82;102062.09;1841617;77;20140;-61
2022/11/15 10:36:28;;;;;;;;;;;;;;;17.98;39.76;102057.76;1840957;78;20120;-60
2022/11/15 10:38:54;;;;;;;;;;;;;;;18.12;39.62;102055.28;1840945;78;20140;-59
2022/11/15 10:41:34;;;;;;;;;;;;;;;18.05;39.97;102055.19;1841537;78;20122;-58
2022/11/15 10:44:03;;;;;;;;;;;;;;;18.27;39.22;102045.64;1829598;78;20122;-54
2022/11/15 10:46:31;;;;;;;;;;;;;;;18.55;38.78;102041.56;1839931;78;20102;-53
2022/11/15 10:49:17;;;;;;;;;;;;;;;18.76;38.62;102045.78;1840009;77;20123;-54
2022/11/15 10:51:49;;;;;;;;;;;;;;;19.04;38.02;102037.66;1839930;78;20200;-53
2022/11/15 10:54:21;;;;;;;;;;;;;;;18.68;38.05;102033.30;1839982;78;20412;-54
2022/11/15 10:56:51;;;;;;;;;;;;;;;18.32;38.18;102035.61;1827065;78;20122;-52
2022/11/15 10:59:20;;;;;;;;;;;;;;;17.99;38.69;102031.52;1839901;78;20122;-52
2022/11/15 11:01:48;;;;;;;;;;;;;;;17.31;40.00;102032.07;1837815;78;20146;-55
2022/11/15 11:04:18;;;;;;;;;;;;;;;17.18;40.52;102029.12;1823175;77;20260;-56
2022/11/15 11:06:50;;;;;;;;;;;;;;;17.35;39.81;102025.22;1831170;78;20464;-58
2022/11/15 11:09:22;;;;;;;;;;;;;;;17.27;39.55;102023.36;1838782;77;20262;-56
2022/11/15 11:11:51;;;;;;;;;;;;;;;17.14;39.74;102024.40;1846493;77;20493;-58
2022/11/15 11:14:23;;;;;;;;;;;;;;;17.14;39.91;102019.08;1846199;77;20520;-54
2022/11/15 11:16:52;;;;;;;;;;;;;;;16.98;39.78;102016.25;1851766;77;20432;-51
2022/11/15 11:19:36;;;;;;;;;;;;;;;16.73;39.89;102019.61;1847885;77;20257;-54
2022/11/15 11:22:05;;;;;;;;;;;;;;;16.63;40.08;102011.16;1858190;76;20178;-50
2022/11/15 11:24:37;;;;;;;;;;;;;;;16.40;40.27;102014.36;1859618;77;20146;-50
2022/11/15 11:27:18;;;;;;;;;;;;;;;16.24;40.67;102013.77;1859567;77;20178;-48
2022/11/15 11:29:46;;;;;;;;;;;;;;;16.22;40.76;102009.84;1859636;77;20169;-52
2022/11/15 11:32:16;;;;;;;;;;;;;;;16.04;41.06;102003.50;1858372;77;20145;-51
2022/11/15 11:35:03;;;;;;;;;;;;;;;16.01;41.47;102003.66;1857940;77;20122;-50
2022/11/15 11:37:44;;;;;;;;;;;;;;;15.75;41.86;102005.59;1856978;77;20119;-50
2022/11/15 11:40:16;;;;;;;;;;;;;;;15.67;41.99;102003.66;1857867;77;20123;-50
2022/11/15 11:42:58;;;;;;;;;;;;;;;15.49;42.56;101998.61;1857029;76;20148;-50
2022/11/15 11:45:31;;;;;;;;;;;;;;;15.59;42.61;101994.67;1840354;77;20115;-53
2022/11/15 11:48:10;;;;;;;;;;;;;;;15.47;42.82;101989.84;1837022;78;20377;-56
2022/11/15 11:50:38;;;;;;;;;;;;;;;15.23;43.18;101989.02;1828819;78;20121;-56
2022/11/15 11:53:13;;;;;;;;;;;;;;;15.19;43.48;101992.72;1828824;78;20125;-54
2022/11/15 11:55:46;;;;;;;;;;;;;;;14.96;43.75;101979.88;1828803;77;20113;-53
2022/11/15 11:58:25;;;;;;;;;;;;;;;14.49;44.48;101981.12;1828695;78;20242;-50
2022/11/15 12:00:58;;;;;;;;;;;;;;;13.57;45.67;101980.25;1845220;76;20403;-54
2022/11/15 12:03:39;;;;;;;;;;;;;;;12.80;46.57;101982.09;1885983;76;20184;-50
2022/11/15 12:06:08;;;;;;;;;;;;;;;12.22;47.26;101985.84;1885960;76;20147;-49
2022/11/15 12:08:53;;;;;;;;;;;;;;;11.68;48.02;101975.73;1875771;76;20188;-52
2022/11/15 12:11:38;;;;;;;;;;;;;;;11.32;48.30;101984.44;1827497;77;20225;-50
2022/11/15 12:14:08;;;;;;;;;;;;;;;11.03;48.58;101979.83;1835527;78;20179;-57
2022/11/15 12:16:36;;;;;;;;;;;;;;;10.76;48.99;101976.84;1840480;78;20274;-62
2022/11/15 12:19:05;;;;;;;;;;;;;;;10.57;49.10;101970.22;1841119;77;20392;-58
2022/11/15 12:21:37;;;;;;;;;;;;;;;10.41;49.53;101970.48;1840851;78;20118;-57
2022/11/15 12:24:06;;;;;;;;;;;;;;;10.35;49.80;101971.94;1841392;77;20182;-57
2022/11/15 12:26:35;;;;;;;;;;;;;;;10.34;49.92;101978.08;1838999;78;20132;-58
2022/11/15 12:29:08;;;;;;;;;;;;;;;10.24;50.02;101968.14;1840072;78;20118;-58
2022/11/15 12:31:37;;;;;;;;;;;;;;;10.13;50.15;101965.30;1840570;77;20225;-55
2022/11/15 12:34:15;;;;;;;;;;;;;;;10.01;50.30;101969.88;1840691;78;20169;-57
2022/11/15 12:36:43;;;;;;;;;;;;;;;9.92;50.53;101960.79;1838108;78;20123;-53
2022/11/15 12:39:12;;;;;;;;;;;;;;;9.81;50.87;101962.73;1839862;78;20114;-53
2022/11/15 12:41:41;;;;;;;;;;;;;;;9.76;50.94;101964.59;1842049;77;20135;-55
2022/11/15 12:44:15;;;;;;;;;;;;;;;9.69;50.96;101959.87;1872591;77;20152;-55
2022/11/15 12:46:45;;;;;;;;;;;;;;;9.63;51.08;101957.34;1873656;76;20116;-55
2022/11/15 12:49:20;;;;;;;;;;;;;;;9.56;51.27;101964.45;1872662;77;20149;-56
2022/11/15 12:51:51;;;;;;;;;;;;;;;9.50;51.42;101960.61;1828977;78;20221;-49
2022/11/15 12:54:23;;;;;;;;;;;;;;;9.43;51.70;101960.27;1841593;78;20419;-53
2022/11/15 12:57:08;;;;;;;;;;;;;;;9.37;51.82;101957.71;1841727;77;20123;-53
2022/11/15 12:59:58;;;;;;;;;;;;;;;9.28;51.91;101955.66;1841754;78;20161;-54
2022/11/15 13:02:26;;;;;;;;;;;;;;;9.23;52.02;101952.22;1839387;78;20221;-57
2022/11/15 13:04:55;;;;;;;;;;;;;;;9.18;52.16;101942.66;1839918;78;20177;-60
2022/11/15 13:07:42;;;;;;;;;;;;;;;9.11;52.30;101944.52;1839865;77;20123;-56
2022/11/15 13:10:12;;;;;;;;;;;;;;;9.07;52.42;101952.00;1839108;76;20154;-54
2022/11/15 13:12:47;;;;;;;;;;;;;;;9.01;52.52;101944.20;1836494;78;20161;-57
2022/11/15 13:15:16;;;;;;;;;;;;;;;8.94;52.66;101938.61;1836391;78;20197;-54
2022/11/15 13:17:45;;;;;;;;;;;;;;;8.88;52.77;101943.50;1836500;78;20151;-54
2022/11/15 13:20:15;;;;;;;;;;;;;;;8.80;52.91;101938.34;1836452;78;20147;-60
2022/11/15 13:22:59;;;;;;;;;;;;;;;8.73;53.10;101940.62;1838832;77;20184;-62
2022/11/15 13:25:31;;;;;;;;;;;;;;;8.67;53.16;101943.33;1872687;77;20155;-60
2022/11/15 13:27:59;;;;;;;;;;;;;;;8.60;53.25;101939.89;1848169;77;20148;-64
2022/11/15 13:30:28;;;;;;;;;;;;;;;8.53;53.36;101929.48;1850885;77;20149;-65
2022/11/15 13:32:58;;;;;;;;;;;;;;;8.48;53.45;101931.73;1852355;77;20169;-61
2022/11/15 13:35:27;;;;;;;;;;;;;;;8.42;53.52;101933.09;1852327;77;20226;-61
2022/11/15 13:37:56;;;;;;;;;;;;;;;8.34;53.66;101930.97;1839919;77;20170;-61
2022/11/15 13:40:30;;;;;;;;;;;;;;;8.28;53.73;101927.97;1834649;78;20123;-62
2022/11/15 13:42:58;;;;;;;;;;;;;;;8.22;53.92;101929.33;1855691;77;20120;-61
2022/11/15 13:45:26;;;;;;;;;;;;;;;8.14;54.09;101927.69;1869052;77;20214;-62
2022/11/15 13:47:56;;;;;;;;;;;;;;;8.07;54.23;101927.72;1869072;77;20121;-61
2022/11/15 13:50:28;;;;;;;;;;;;;;;7.99;54.34;101932.19;1869023;77;20383;-62
2022/11/15 13:52:56;;;;;;;;;;;;;;;7.90;54.49;101925.27;1868512;76;20112;-61
2022/11/15 13:55:26;;;;;;;;;;;;;;;7.84;54.57;101920.50;1860140;76;20259;-61
2022/11/15 13:57:58;;;;;;;;;;;;;;;7.77;54.71;101917.53;1869156;77;20108;-62
2022/11/15 14:00:28;;;;;;;;;;;;;;;7.69;54.81;101913.64;1869088;76;20171;-61
2022/11/15 14:03:00;;;;;;;;;;;;;;;7.61;54.95;101912.39;1868846;77;20187;-61
2022/11/15 14:05:28;;;;;;;;;;;;;;;7.54;55.03;101918.56;1851085;76;20167;-62